Time;durP1;ratioP1;P1;durP2;ratioP2;P2;SDS_P1;SDS_P2;PMS_P1;PMS_P2;Temp;Humidity;BMP_temperature;BMP_pressure;BME280_temperature;BME280_humidity;BME280_pressure;Samples;Min_cycle;Max_cycle;Signal;HPM_P1;HPM_P2
2023/08/18 00:02:50;;;;;;;29.23;21.97;;;;;;;;;;2614617;54;20901;-76
2023/08/18 00:08:20;;;;;;;30.13;21.63;;;;;;;;;;2614744;54;20398;-76
2023/08/18 00:13:50;;;;;;;33.33;22.43;;;;;;;;;;2615230;39;20731;-75
2023/08/18 00:19:19;;;;;;;34.70;24.10;;;;;;;;;;2614965;54;20407;-75
2023/08/18 00:24:49;;;;;;;34.13;24.40;;;;;;;;;;2614801;54;20410;-75
2023/08/18 00:30:19;;;;;;;34.97;23.70;;;;;;;;;;2615373;39;20752;-74
2023/08/18 00:35:49;;;;;;;39.23;28.80;;;;;;;;;;2615258;54;20434;-75
2023/08/18 00:41:18;;;;;;;41.60;27.03;;;;;;;;;;2615309;54;20355;-76
2023/08/18 00:46:48;;;;;;;33.70;25.10;;;;;;;;;;2615442;54;20506;-75
2023/08/18 00:52:18;;;;;;;39.63;25.97;;;;;;;;;;2616183;54;20435;-75
2023/08/18 00:57:47;;;;;;;38.47;28.20;;;;;;;;;;2615925;54;20354;-75
2023/08/18 01:03:17;;;;;;;32.43;26.43;;;;;;;;;;2615396;54;20391;-76
2023/08/18 01:08:47;;;;;;;32.83;24.90;;;;;;;;;;2615023;54;20406;-75
2023/08/18 01:14:16;;;;;;;33.23;24.70;;;;;;;;;;2615380;54;20422;-76
2023/08/18 01:19:47;;;;;;;35.43;25.00;;;;;;;;;;2614991;54;20363;-75
2023/08/18 01:25:16;;;;;;;34.00;23.33;;;;;;;;;;2615375;54;20387;-75
2023/08/18 01:30:47;;;;;;;32.20;24.40;;;;;;;;;;2614901;54;20844;-75
2023/08/18 01:36:18;;;;;;;31.47;22.73;;;;;;;;;;2615432;54;20413;-75
2023/08/18 01:41:49;;;;;;;37.50;23.80;;;;;;;;;;2614756;54;20379;-75
2023/08/18 01:53:26;;;;;;;37.83;24.97;;;;;;;;;;2615030;54;20347;-75
2023/08/18 01:58:56;;;;;;;35.63;23.47;;;;;;;;;;2614812;54;20390;-76
2023/08/18 02:04:26;;;;;;;40.57;26.63;;;;;;;;;;2615255;54;20383;-76
2023/08/18 02:09:55;;;;;;;40.47;24.77;;;;;;;;;;2613855;54;20364;-73
2023/08/18 02:15:25;;;;;;;33.77;23.30;;;;;;;;;;2614956;54;20371;-73
2023/08/18 02:20:55;;;;;;;34.87;23.20;;;;;;;;;;2614565;54;20943;-73
2023/08/18 02:26:25;;;;;;;33.83;21.37;;;;;;;;;;2614875;47;21190;-73
2023/08/18 02:31:55;;;;;;;33.53;22.90;;;;;;;;;;2614275;54;20383;-74
2023/08/18 02:37:25;;;;;;;38.53;24.10;;;;;;;;;;2615850;31;20831;-74
2023/08/18 02:42:54;;;;;;;38.87;22.73;;;;;;;;;;2614877;54;20383;-73
2023/08/18 02:57:25;;;;;;;42.87;24.00;;;;;;;;;;2614727;54;20391;-73
2023/08/18 03:02:55;;;;;;;37.80;22.73;;;;;;;;;;2615296;54;20398;-73
2023/08/18 03:08:25;;;;;;;46.83;25.53;;;;;;;;;;2614535;54;20391;-73
2023/08/18 03:13:55;;;;;;;44.93;23.23;;;;;;;;;;2615179;54;20379;-73
2023/08/18 03:19:24;;;;;;;40.47;25.23;;;;;;;;;;2615170;54;20969;-74
2023/08/18 03:24:54;;;;;;;40.33;23.53;;;;;;;;;;2615370;54;20414;-74
2023/08/18 03:30:23;;;;;;;38.43;24.43;;;;;;;;;;2615909;31;20781;-74
2023/08/18 03:35:53;;;;;;;44.77;26.37;;;;;;;;;;2615131;54;20394;-75
2023/08/18 03:41:23;;;;;;;42.50;24.57;;;;;;;;;;2615080;54;20407;-74
2023/08/18 03:46:53;;;;;;;40.90;25.77;;;;;;;;;;2615186;54;20383;-74
2023/08/18 03:52:23;;;;;;;42.50;24.93;;;;;;;;;;2615265;54;20355;-75
2023/08/18 03:57:52;;;;;;;47.97;25.10;;;;;;;;;;2614909;54;20391;-73
2023/08/18 04:03:22;;;;;;;36.90;22.10;;;;;;;;;;2615026;54;20399;-74
2023/08/18 04:14:50;;;;;;;38.07;23.77;;;;;;;;;;2616108;54;20925;-75
2023/08/18 04:20:20;;;;;;;39.63;23.90;;;;;;;;;;2615701;54;21160;-74
2023/08/18 04:25:50;;;;;;;36.90;24.13;;;;;;;;;;2616135;54;20390;-74
2023/08/18 04:31:19;;;;;;;40.80;23.93;;;;;;;;;;2615326;54;20925;-70
2023/08/18 04:36:49;;;;;;;41.80;25.53;;;;;;;;;;2614920;54;20395;-70
2023/08/18 04:42:18;;;;;;;39.10;25.00;;;;;;;;;;2614897;54;20378;-70
2023/08/18 04:53:55;;;;;;;39.50;24.43;;;;;;;;;;2615396;54;20391;-69
2023/08/18 04:59:26;;;;;;;37.87;23.80;;;;;;;;;;2615489;54;20379;-70
2023/08/18 05:04:55;;;;;;;47.13;26.97;;;;;;;;;;2616329;39;20880;-71
2023/08/18 05:10:25;;;;;;;57.70;31.33;;;;;;;;;;2615659;54;20380;-70
2023/08/18 05:15:55;;;;;;;50.90;27.90;;;;;;;;;;2615455;54;20382;-70
2023/08/18 05:21:25;;;;;;;54.97;30.30;;;;;;;;;;2615355;54;20359;-70
2023/08/18 05:26:54;;;;;;;51.87;29.43;;;;;;;;;;2615752;54;20387;-70
2023/08/18 05:32:24;;;;;;;51.63;28.23;;;;;;;;;;2615283;54;20367;-71
2023/08/18 05:37:54;;;;;;;57.27;28.60;;;;;;;;;;2615440;54;20371;-70
2023/08/18 05:43:23;;;;;;;62.33;31.57;;;;;;;;;;2615685;54;20905;-71
2023/08/18 05:52:27;;;;;;;49.50;27.20;;;;;;;;;;2615346;54;20406;-72
2023/08/18 05:58:01;;;;;;;56.27;30.23;;;;;;;;;;2614651;54;20426;-73
2023/08/18 06:03:30;;;;;;;47.33;26.80;;;;;;;;;;2615029;54;20383;-72
2023/08/18 06:09:01;;;;;;;46.70;26.20;;;;;;;;;;2614764;46;20503;-72
2023/08/18 06:14:30;;;;;;;51.53;27.70;;;;;;;;;;2614961;46;20777;-72
2023/08/18 06:20:00;;;;;;;51.23;27.40;;;;;;;;;;2615715;39;20717;-69
2023/08/18 06:25:30;;;;;;;41.37;25.87;;;;;;;;;;2615582;39;20815;-71
2023/08/18 06:31:03;;;;;;;47.10;27.20;;;;;;;;;;2615018;54;20388;-71
2023/08/18 06:36:32;;;;;;;45.60;27.17;;;;;;;;;;2615534;54;20363;-70
2023/08/18 06:42:02;;;;;;;42.83;25.37;;;;;;;;;;2615214;54;20526;-71
2023/08/18 06:47:32;;;;;;;36.43;24.43;;;;;;;;;;2614237;54;20346;-71
2023/08/18 06:53:01;;;;;;;36.30;21.77;;;;;;;;;;2615265;54;20442;-69
2023/08/18 06:58:32;;;;;;;39.63;22.50;;;;;;;;;;2614900;54;20893;-70
2023/08/18 07:04:04;;;;;;;32.70;22.20;;;;;;;;;;2614865;54;20387;-71
2023/08/18 07:09:34;;;;;;;32.17;22.90;;;;;;;;;;2615526;31;20839;-70
2023/08/18 07:15:03;;;;;;;36.00;23.70;;;;;;;;;;2614654;54;20370;-69
2023/08/18 07:20:33;;;;;;;35.57;21.83;;;;;;;;;;2614898;54;20383;-71
2023/08/18 07:26:03;;;;;;;34.43;22.63;;;;;;;;;;2614967;54;20359;-71
2023/08/18 07:31:33;;;;;;;26.50;20.63;;;;;;;;;;2614937;54;20399;-69
2023/08/18 07:37:04;;;;;;;24.03;18.20;;;;;;;;;;2614931;54;20382;-70
2023/08/18 07:42:33;;;;;;;18.83;14.33;;;;;;;;;;2614909;54;20902;-69
2023/08/18 07:48:03;;;;;;;21.40;15.90;;;;;;;;;;2614516;54;20359;-70
2023/08/18 07:57:14;;;;;;;12.50;10.50;;;;;;;;;;2615064;46;20507;-72
2023/08/18 08:02:43;;;;;;;13.00;10.07;;;;;;;;;;2614267;54;20403;-73
2023/08/18 08:08:13;;;;;;;12.23;9.63;;;;;;;;;;2614562;54;20375;-74
2023/08/18 08:19:50;;;;;;;10.83;9.73;;;;;;;;;;2614414;54;20511;-73
2023/08/18 08:25:20;;;;;;;12.63;9.40;;;;;;;;;;2614443;54;21041;-74
2023/08/18 08:30:49;;;;;;;15.73;11.37;;;;;;;;;;2614536;54;20343;-74
2023/08/18 08:36:19;;;;;;;14.40;11.60;;;;;;;;;;2614238;54;20358;-74
2023/08/18 08:41:49;;;;;;;11.53;10.13;;;;;;;;;;2614173;54;20359;-74
2023/08/18 08:47:18;;;;;;;12.60;11.30;;;;;;;;;;2614062;54;20403;-74
2023/08/18 08:58:40;;;;;;;13.00;11.70;;;;;;;;;;2614470;54;20424;-73
2023/08/18 09:04:09;;;;;;;13.10;11.80;;;;;;;;;;2614757;54;20410;-74
2023/08/18 09:09:39;;;;;;;11.30;10.20;;;;;;;;;;2615387;54;20435;-72
2023/08/18 09:15:09;;;;;;;12.23;11.03;;;;;;;;;;2615436;39;20747;-74
2023/08/18 09:20:41;;;;;;;12.17;11.17;;;;;;;;;;2615578;54;20354;-73
2023/08/18 09:26:11;;;;;;;14.37;12.70;;;;;;;;;;2615170;54;20431;-74
2023/08/18 09:31:40;;;;;;;14.20;12.70;;;;;;;;;;2615143;54;20406;-73
2023/08/18 09:37:10;;;;;;;11.93;10.93;;;;;;;;;;2615162;54;20363;-73
2023/08/18 09:42:40;;;;;;;11.93;10.83;;;;;;;;;;2615292;54;20920;-73
2023/08/18 09:48:11;;;;;;;12.50;11.50;;;;;;;;;;2615102;54;21058;-72
2023/08/18 09:53:45;;;;;;;14.70;13.50;;;;;;;;;;2615599;54;20566;-74
2023/08/18 09:59:17;;;;;;;13.03;11.93;;;;;;;;;;2615077;54;20358;-73
2023/08/18 10:04:47;;;;;;;14.40;13.30;;;;;;;;;;2615195;54;20399;-74
2023/08/18 10:10:17;;;;;;;13.27;12.27;;;;;;;;;;2615061;54;20395;-73
2023/08/18 10:15:47;;;;;;;14.90;13.70;;;;;;;;;;2614768;54;21245;-74
2023/08/18 10:21:17;;;;;;;15.63;14.33;;;;;;;;;;2615421;39;21061;-72
2023/08/18 10:26:46;;;;;;;16.93;15.50;;;;;;;;;;2614888;54;20410;-73
2023/08/18 10:32:17;;;;;;;15.80;14.40;;;;;;;;;;2614915;54;20391;-73
2023/08/18 10:37:51;;;;;;;15.50;14.47;;;;;;;;;;2614644;54;20443;-72
2023/08/18 10:43:20;;;;;;;18.50;17.10;;;;;;;;;;2614720;54;20414;-72
2023/08/18 10:48:50;;;;;;;16.33;15.23;;;;;;;;;;2614609;54;20395;-72
2023/08/18 10:57:57;;;;;;;17.50;16.40;;;;;;;;;;2614567;46;20977;-72
2023/08/18 11:03:27;;;;;;;19.37;18.07;;;;;;;;;;2614878;39;20739;-72
2023/08/18 11:08:58;;;;;;;18.90;17.60;;;;;;;;;;2614697;54;20358;-73
2023/08/18 11:14:27;;;;;;;19.67;18.13;;;;;;;;;;2614485;54;20386;-73
2023/08/18 11:19:58;;;;;;;20.43;19.10;;;;;;;;;;2615091;39;21125;-72
2023/08/18 11:25:27;;;;;;;19.63;18.43;;;;;;;;;;2614348;54;20366;-73
2023/08/18 11:30:57;;;;;;;17.60;16.33;;;;;;;;;;2614649;54;20429;-72
2023/08/18 11:36:30;;;;;;;17.40;16.20;;;;;;;;;;2614916;54;20889;-73
2023/08/18 11:42:00;;;;;;;16.87;15.77;;;;;;;;;;2614680;54;20359;-72
2023/08/18 11:47:30;;;;;;;17.90;16.70;;;;;;;;;;2614167;54;21234;-73
2023/08/18 11:52:59;;;;;;;17.47;16.17;;;;;;;;;;2615128;31;20932;-73
2023/08/18 11:58:29;;;;;;;17.43;16.07;;;;;;;;;;2614181;54;20382;-73
2023/08/18 12:03:59;;;;;;;18.43;17.10;;;;;;;;;;2614497;54;20387;-72
2023/08/18 12:09:28;;;;;;;16.93;15.83;;;;;;;;;;2614492;54;20372;-71
2023/08/18 12:14:58;;;;;;;18.80;17.33;;;;;;;;;;2614685;54;20391;-72
2023/08/18 12:20:28;;;;;;;18.33;16.90;;;;;;;;;;2614463;54;20913;-73
2023/08/18 12:25:57;;;;;;;20.03;18.57;;;;;;;;;;2615192;39;20732;-72
2023/08/18 12:31:27;;;;;;;20.70;19.10;;;;;;;;;;2615284;39;20761;-72
2023/08/18 12:36:59;;;;;;;22.50;21.00;;;;;;;;;;2614722;54;20434;-73
2023/08/18 12:42:30;;;;;;;22.10;20.60;;;;;;;;;;2614931;54;20366;-72
2023/08/18 12:48:01;;;;;;;23.47;21.90;;;;;;;;;;2615243;54;20394;-73
2023/08/18 12:53:31;;;;;;;22.77;21.17;;;;;;;;;;2615528;31;20855;-72
2023/08/18 12:59:00;;;;;;;21.20;19.70;;;;;;;;;;2614618;54;20371;-73
2023/08/18 13:04:30;;;;;;;21.77;20.30;;;;;;;;;;2614899;54;20376;-72
2023/08/18 13:09:59;;;;;;;20.40;19.10;;;;;;;;;;2615041;54;20861;-72
2023/08/18 13:15:29;;;;;;;21.63;20.30;;;;;;;;;;2614949;54;20403;-72
2023/08/18 13:20:59;;;;;;;20.20;19.00;;;;;;;;;;2615290;54;20387;-73
2023/08/18 13:26:29;;;;;;;20.83;19.33;;;;;;;;;;2615128;54;20367;-73
2023/08/18 13:31:59;;;;;;;18.77;17.37;;;;;;;;;;2615229;39;20733;-74
2023/08/18 13:37:28;;;;;;;17.97;16.83;;;;;;;;;;2614762;54;20354;-73
2023/08/18 13:42:58;;;;;;;18.60;17.17;;;;;;;;;;2614799;54;20356;-73
2023/08/18 13:48:27;;;;;;;20.17;18.87;;;;;;;;;;2614982;54;21218;-73
2023/08/18 14:00:04;;;;;;;20.63;19.33;;;;;;;;;;2615340;54;20468;-73
2023/08/18 14:05:34;;;;;;;22.40;20.63;;;;;;;;;;2615326;54;20387;-73
2023/08/18 14:11:04;;;;;;;21.70;20.20;;;;;;;;;;2615279;54;20937;-74
2023/08/18 14:16:34;;;;;;;19.10;18.00;;;;;;;;;;2615753;54;20359;-75
2023/08/18 14:22:03;;;;;;;18.60;17.57;;;;;;;;;;2615604;54;20362;-74
2023/08/18 14:27:33;;;;;;;18.07;16.97;;;;;;;;;;2615172;54;20447;-73
2023/08/18 14:33:03;;;;;;;17.67;16.57;;;;;;;;;;2615315;54;20397;-73
2023/08/18 14:38:33;;;;;;;17.43;16.43;;;;;;;;;;2614896;54;20475;-74
2023/08/18 14:44:03;;;;;;;18.33;17.13;;;;;;;;;;2615442;54;20390;-75
2023/08/18 14:49:32;;;;;;;16.70;15.70;;;;;;;;;;2614959;54;20343;-73
2023/08/18 15:01:12;;;;;;;17.53;16.30;;;;;;;;;;2615207;54;20391;-73
2023/08/18 15:06:41;;;;;;;15.50;14.60;;;;;;;;;;2614664;54;20420;-73
2023/08/18 15:12:11;;;;;;;16.20;15.20;;;;;;;;;;2615003;54;20907;-73
2023/08/18 15:17:41;;;;;;;19.30;18.07;;;;;;;;;;2614624;54;20387;-72
2023/08/18 15:23:10;;;;;;;17.43;16.37;;;;;;;;;;2615165;39;20812;-73
2023/08/18 15:28:40;;;;;;;18.53;17.10;;;;;;;;;;2615007;39;20815;-72
2023/08/18 15:34:10;;;;;;;17.47;16.30;;;;;;;;;;2614306;54;20435;-73
2023/08/18 15:39:39;;;;;;;16.80;15.70;;;;;;;;;;2615220;39;20788;-73
2023/08/18 15:45:09;;;;;;;16.80;15.80;;;;;;;;;;2614693;39;21025;-72
2023/08/18 15:50:39;;;;;;;17.57;16.13;;;;;;;;;;2614279;54;20383;-73
2023/08/18 15:53:23;;;;;;;17.10;15.70;;;;;;;;;;2613754;47;20420;-73
2023/08/18 16:01:57;;;;;;;18.27;16.50;;;;;;;;;;2614291;54;20383;-73
2023/08/18 16:07:27;;;;;;;16.73;15.23;;;;;;;;;;2614299;54;21408;-73
2023/08/18 16:12:58;;;;;;;16.60;15.60;;;;;;;;;;2614648;54;20359;-72
2023/08/18 16:18:27;;;;;;;16.50;15.40;;;;;;;;;;2614151;54;20413;-72
2023/08/18 16:23:56;;;;;;;16.60;15.60;;;;;;;;;;2614359;54;20395;-73
2023/08/18 16:29:26;;;;;;;16.00;15.00;;;;;;;;;;2614057;54;20359;-73
2023/08/18 16:34:55;;;;;;;15.07;14.20;;;;;;;;;;2613941;54;20408;-73
2023/08/18 16:40:25;;;;;;;15.23;14.33;;;;;;;;;;2614269;54;20358;-73
2023/08/18 16:45:55;;;;;;;16.80;15.87;;;;;;;;;;2614103;54;20378;-73
2023/08/18 16:51:25;;;;;;;17.87;16.33;;;;;;;;;;2614408;54;20913;-74
2023/08/18 17:00:32;;;;;;;17.50;16.10;;;;;;;;;;2614563;54;20422;-73
2023/08/18 17:06:01;;;;;;;16.47;15.17;;;;;;;;;;2614542;54;20400;-74
2023/08/18 17:11:31;;;;;;;18.40;16.80;;;;;;;;;;2614904;54;20383;-73
2023/08/18 17:17:01;;;;;;;17.57;16.33;;;;;;;;;;2614942;54;20893;-73
2023/08/18 17:22:31;;;;;;;18.77;17.37;;;;;;;;;;2615400;54;20407;-72
2023/08/18 17:28:00;;;;;;;18.60;16.90;;;;;;;;;;2615192;54;21170;-72
2023/08/18 17:33:30;;;;;;;18.53;16.70;;;;;;;;;;2614844;54;20367;-72
2023/08/18 17:38:59;;;;;;;17.43;15.90;;;;;;;;;;2615091;54;20422;-72
2023/08/18 17:44:29;;;;;;;17.33;16.03;;;;;;;;;;2615511;54;20460;-73
2023/08/18 17:49:59;;;;;;;17.17;15.60;;;;;;;;;;2615043;54;20386;-74
2023/08/18 17:55:29;;;;;;;15.47;14.40;;;;;;;;;;2615002;54;20905;-74
2023/08/18 18:00:59;;;;;;;18.97;17.17;;;;;;;;;;2614958;54;20442;-75
2023/08/18 18:06:28;;;;;;;19.27;17.53;;;;;;;;;;2614661;54;20370;-74
2023/08/18 18:11:58;;;;;;;16.73;15.43;;;;;;;;;;2614976;54;20406;-74
2023/08/18 18:17:28;;;;;;;17.67;16.07;;;;;;;;;;2614518;54;20424;-75
2023/08/18 18:22:58;;;;;;;16.63;15.30;;;;;;;;;;2614717;54;20468;-74
2023/08/18 18:28:27;;;;;;;16.80;15.60;;;;;;;;;;2614930;54;20363;-75
2023/08/18 18:33:57;;;;;;;18.70;16.97;;;;;;;;;;2615073;54;20398;-75
2023/08/18 18:39:27;;;;;;;16.70;14.90;;;;;;;;;;2615002;54;20395;-75
2023/08/18 18:44:57;;;;;;;17.37;15.87;;;;;;;;;;2614924;54;20394;-75
2023/08/18 18:50:27;;;;;;;16.53;15.00;;;;;;;;;;2615312;39;20743;-75
2023/08/18 18:55:56;;;;;;;17.20;15.80;;;;;;;;;;2614621;54;20359;-75
2023/08/18 19:05:07;;;;;;;17.90;15.53;;;;;;;;;;2614949;54;20399;-76
2023/08/18 19:10:36;;;;;;;17.70;16.30;;;;;;;;;;2615186;54;20414;-75
2023/08/18 19:16:07;;;;;;;17.40;16.10;;;;;;;;;;2615040;54;20395;-76
2023/08/18 19:21:36;;;;;;;21.10;16.63;;;;;;;;;;2614804;54;20391;-75
2023/08/18 19:27:06;;;;;;;17.43;16.03;;;;;;;;;;2614594;54;20362;-75
2023/08/18 19:32:36;;;;;;;15.30;14.00;;;;;;;;;;2614671;54;20362;-75
2023/08/18 19:38:06;;;;;;;15.83;14.13;;;;;;;;;;2615032;54;20366;-76
2023/08/18 19:43:35;;;;;;;17.73;15.70;;;;;;;;;;2614877;54;20438;-74
2023/08/18 19:49:05;;;;;;;19.97;18.03;;;;;;;;;;2615125;39;20719;-76
2023/08/18 19:54:35;;;;;;;18.80;17.20;;;;;;;;;;2614144;54;20391;-75
2023/08/18 20:00:09;;;;;;;18.37;16.60;;;;;;;;;;2614673;54;20359;-74
2023/08/18 20:05:39;;;;;;;20.70;17.37;;;;;;;;;;2614174;54;20474;-75
2023/08/18 20:11:10;;;;;;;20.17;18.20;;;;;;;;;;2614928;39;21189;-75
2023/08/18 20:16:40;;;;;;;23.27;20.97;;;;;;;;;;2614510;54;20370;-76
2023/08/18 20:22:10;;;;;;;19.57;17.73;;;;;;;;;;2614651;54;20374;-75
2023/08/18 20:27:40;;;;;;;19.43;17.83;;;;;;;;;;2614043;54;20430;-77
2023/08/18 20:33:09;;;;;;;20.13;18.43;;;;;;;;;;2614350;54;20434;-75
2023/08/18 20:38:39;;;;;;;21.50;19.33;;;;;;;;;;2614509;54;20372;-75
2023/08/18 20:44:08;;;;;;;22.53;20.33;;;;;;;;;;2614518;54;20445;-75
2023/08/18 20:49:38;;;;;;;24.13;21.77;;;;;;;;;;2615640;54;20384;-73
2023/08/18 20:55:08;;;;;;;23.07;20.87;;;;;;;;;;2615379;54;20383;-75
2023/08/18 21:00:37;;;;;;;31.53;28.43;;;;;;;;;;2615217;54;20394;-74
2023/08/18 21:15:37;;;;;;;29.53;26.83;;;;;;;;;;2613758;54;21125;-74
2023/08/18 21:21:06;;;;;;;29.20;26.30;;;;;;;;;;2613714;54;20413;-75
2023/08/18 21:26:35;;;;;;;25.37;22.90;;;;;;;;;;2614166;54;20433;-74
2023/08/18 21:32:04;;;;;;;25.37;22.70;;;;;;;;;;2614303;54;20380;-74
2023/08/18 21:37:33;;;;;;;24.00;21.90;;;;;;;;;;2613989;54;20420;-74
2023/08/18 21:43:03;;;;;;;24.70;22.27;;;;;;;;;;2614437;54;20375;-73
2023/08/18 21:48:32;;;;;;;25.70;22.53;;;;;;;;;;2615678;39;20849;-75
2023/08/18 21:54:03;;;;;;;26.00;23.40;;;;;;;;;;2615035;54;20411;-75
2023/08/18 21:59:32;;;;;;;25.57;23.13;;;;;;;;;;2615886;39;20731;-75
2023/08/18 22:05:02;;;;;;;24.60;22.30;;;;;;;;;;2614979;39;20901;-74
2023/08/18 22:10:31;;;;;;;25.97;23.70;;;;;;;;;;2615706;39;20912;-76
2023/08/18 22:16:01;;;;;;;24.80;22.37;;;;;;;;;;2614768;54;20391;-76
2023/08/18 22:21:31;;;;;;;24.53;22.00;;;;;;;;;;2614673;54;20423;-76
2023/08/18 22:27:00;;;;;;;23.13;21.13;;;;;;;;;;2615454;39;20866;-74
2023/08/18 22:32:30;;;;;;;23.17;21.10;;;;;;;;;;2615010;54;20387;-75
2023/08/18 22:38:00;;;;;;;23.10;20.80;;;;;;;;;;2615198;54;20439;-75
2023/08/18 22:43:30;;;;;;;23.00;20.70;;;;;;;;;;2614836;54;21029;-75
2023/08/18 22:49:00;;;;;;;21.40;19.40;;;;;;;;;;2614882;54;20419;-75
2023/08/18 22:54:30;;;;;;;19.43;17.53;;;;;;;;;;2614759;46;20385;-76
2023/08/18 22:59:59;;;;;;;19.50;17.63;;;;;;;;;;2614979;54;20403;-75
2023/08/18 23:05:29;;;;;;;21.67;15.77;;;;;;;;;;2614632;54;20399;-75
2023/08/18 23:14:36;;;;;;;16.90;15.43;;;;;;;;;;2615322;54;20944;-72
2023/08/18 23:20:08;;;;;;;16.23;14.73;;;;;;;;;;2615466;39;21013;-73
2023/08/18 23:25:41;;;;;;;18.57;14.57;;;;;;;;;;2615061;54;20414;-76
2023/08/18 23:31:11;;;;;;;15.83;14.43;;;;;;;;;;2615255;54;20364;-76
2023/08/18 23:36:40;;;;;;;15.67;13.90;;;;;;;;;;2615003;54;20375;-74
2023/08/18 23:42:10;;;;;;;15.20;13.90;;;;;;;;;;2615684;54;20391;-76
2023/08/18 23:47:40;;;;;;;18.43;15.10;;;;;;;;;;2615079;54;20395;-74
2023/08/18 23:53:09;;;;;;;17.63;13.20;;;;;;;;;;2615430;54;20407;-75
2023/08/18 23:58:39;;;;;;;15.00;13.57;;;;;;;;;;2614945;54;20512;-75
